Aviation Digital Data Service (ADDS)

Output produced by METARs form (2336 UTC 25 June 2019)
found at http://aviationweather.gov/metar/data/
 
KHOU 252320Z 2600/2624 17010KT P6SM VCSH BKN110 
     TEMPO 2600/2602 -RA 
     FM260200 16007KT P6SM SCT030 BKN150 
     FM260900 13005KT P6SM BKN020 
     FM261400 13008KT P6SM VCSH SCT030 
     FM261800 14008KT P6SM VCTS SCT040CB